createdAt,value
2019-03-23T00:02:12.693Z,100371.41
2019-03-23T00:08:17.401Z,100367.27
2019-03-23T00:14:22.044Z,100366.77
2019-03-23T00:20:26.602Z,100367.11
2019-03-23T00:26:31.223Z,100363.80
2019-03-23T00:32:35.946Z,100351.31
2019-03-23T00:38:40.504Z,100354.55
2019-03-23T00:44:45.080Z,100346.50
2019-03-23T00:50:49.628Z,100343.02
2019-03-23T00:56:54.185Z,100333.80
2019-03-23T01:02:58.751Z,100335.82
2019-03-23T01:09:06.660Z,100335.14
2019-03-23T01:15:13.926Z,100329.52
2019-03-23T01:21:18.534Z,100325.18
2019-03-23T01:27:23.089Z,100334.41
2019-03-23T01:33:27.649Z,100337.58
2019-03-23T01:39:32.201Z,100322.67
2019-03-23T01:45:36.827Z,100322.86
2019-03-23T01:51:41.453Z,100322.70
2019-03-23T01:57:46.009Z,100319.67
2019-03-23T02:03:50.646Z,100316.98
2019-03-23T02:09:55.200Z,100317.63
2019-03-23T02:15:59.827Z,100310.91
2019-03-23T02:22:04.453Z,100310.75
2019-03-23T02:28:09.021Z,100311.22
2019-03-23T02:34:13.577Z,100318.84
2019-03-23T02:40:18.149Z,100316.67
2019-03-23T02:46:22.709Z,100318.02
2019-03-23T02:52:27.268Z,100307.17
2019-03-23T02:58:31.844Z,100309.82
2019-03-23T03:04:36.407Z,100307.13
2019-03-23T03:10:42.196Z,100310.28
2019-03-23T03:16:46.746Z,100312.81
2019-03-23T03:22:51.309Z,100304.41
2019-03-23T03:28:55.849Z,100310.39
2019-03-23T03:35:00.743Z,100311.93
2019-03-23T03:41:05.531Z,100316.61
2019-03-23T03:47:10.092Z,100318.55
2019-03-23T03:53:14.640Z,100312.78
2019-03-23T03:59:19.208Z,100311.91
2019-03-23T04:05:23.788Z,100320.68
2019-03-23T04:11:28.320Z,100318.95
2019-03-23T04:17:32.883Z,100316.44
2019-03-23T04:23:37.434Z,100329.14
2019-03-23T04:29:41.981Z,100330.92
2019-03-23T04:35:46.547Z,100326.45
2019-03-23T04:41:51.169Z,100324.45
2019-03-23T04:47:55.719Z,100330.45
2019-03-23T04:54:00.273Z,100337.38
2019-03-23T05:00:09.044Z,100337.38
2019-03-23T05:06:13.610Z,100337.95
2019-03-23T05:12:18.161Z,100343.33
2019-03-23T05:18:22.716Z,100343.87
2019-03-23T05:24:27.269Z,100345.27
2019-03-23T05:30:31.826Z,100356.48
2019-03-23T05:36:36.488Z,100364.55
2019-03-23T05:42:41.045Z,100386.74
2019-03-23T05:48:45.607Z,100392.61
2019-03-23T05:54:50.168Z,100402.42
2019-03-23T06:00:54.724Z,100392.44
2019-03-23T06:06:59.283Z,100401.25
2019-03-23T06:13:03.909Z,100409.61
2019-03-23T06:19:08.465Z,100405.78
2019-03-23T06:25:13.044Z,100402.47
2019-03-23T06:31:17.592Z,100400.69
2019-03-23T06:37:22.142Z,100397.94
2019-03-23T06:43:26.696Z,100401.48
2019-03-23T06:49:31.253Z,100414.67
2019-03-23T06:55:36.082Z,100433.03
2019-03-23T07:01:40.637Z,100435.11
2019-03-23T07:07:45.189Z,100438.61
2019-03-23T07:13:49.757Z,100446.38
2019-03-23T07:19:54.323Z,100432.05
2019-03-23T07:25:58.895Z,100427.80
2019-03-23T07:32:05.947Z,100431.78
2019-03-23T07:38:09.757Z,100423.52
2019-03-23T07:44:14.323Z,100426.09
2019-03-23T07:50:18.963Z,100436.18
2019-03-23T07:56:23.534Z,100424.23
2019-03-23T08:02:28.105Z,100430.46
2019-03-23T08:08:32.680Z,100434.81
2019-03-23T08:14:37.322Z,100440.03
2019-03-23T08:20:41.962Z,100439.12
2019-03-23T08:26:46.545Z,100441.70
2019-03-23T08:32:51.277Z,100450.58
2019-03-23T08:38:55.915Z,100456.49
2019-03-23T08:45:00.501Z,100465.41
2019-03-23T08:51:05.217Z,100460.98
2019-03-23T08:57:09.778Z,100464.48
2019-03-23T09:03:14.429Z,100467.63
2019-03-23T09:09:18.994Z,100460.38
2019-03-23T09:15:23.645Z,100467.37
2019-03-23T09:21:28.223Z,100463.51
2019-03-23T09:27:32.866Z,100458.85
2019-03-23T09:33:37.457Z,100463.03
2019-03-23T09:39:42.025Z,100471.25
2019-03-23T09:45:46.606Z,100473.05
2019-03-23T09:51:51.171Z,100485.02
2019-03-23T09:57:55.751Z,100498.33
2019-03-23T10:04:00.335Z,100494.88
2019-03-23T10:10:06.412Z,100502.44
2019-03-23T10:16:11.003Z,100499.98
2019-03-23T10:22:15.593Z,100503.71
2019-03-23T10:28:20.158Z,100517.91
2019-03-23T10:34:24.722Z,100522.95
2019-03-23T10:40:32.767Z,100522.61
2019-03-23T10:46:35.586Z,100521.76
2019-03-23T10:52:40.255Z,100528.31
2019-03-23T10:58:44.835Z,100530.42
2019-03-23T11:04:49.564Z,100530.48
2019-03-23T11:10:54.135Z,100544.23
2019-03-23T11:16:58.705Z,100536.34
2019-03-23T11:23:03.265Z,100535.98
2019-03-23T11:29:08.526Z,100546.60
2019-03-23T11:35:13.669Z,100564.02
2019-03-23T11:41:18.316Z,100585.87
2019-03-23T11:47:22.931Z,100590.55
2019-03-23T11:53:27.528Z,100596.13
2019-03-23T11:59:32.108Z,100597.10
2019-03-23T12:05:36.677Z,100616.59
2019-03-23T12:11:41.258Z,100613.52
2019-03-23T12:17:45.996Z,100616.95
2019-03-23T12:23:50.561Z,100618.39
2019-03-23T12:29:55.153Z,100619.34
2019-03-23T12:35:59.825Z,100625.67
2019-03-23T12:42:04.404Z,100627.02
2019-03-23T12:48:08.979Z,100642.06
2019-03-23T12:54:13.549Z,100634.38
2019-03-23T13:00:18.545Z,100635.36
2019-03-23T13:06:23.136Z,100618.02
2019-03-23T13:12:27.729Z,100619.49
2019-03-23T13:18:32.446Z,100631.87
2019-03-23T13:24:37.025Z,100630.48
2019-03-23T13:30:41.603Z,100638.39
2019-03-23T13:36:46.189Z,100646.70
2019-03-23T13:42:50.758Z,100648.98
2019-03-23T13:48:55.402Z,100663.73
2019-03-23T13:55:00.167Z,100656.02
2019-03-23T14:01:04.879Z,100645.27
2019-03-23T14:07:10.355Z,100636.73
2019-03-23T14:13:14.931Z,100630.69
2019-03-23T14:19:19.652Z,100634.97
2019-03-23T14:25:24.218Z,100618.91
2019-03-23T14:31:28.800Z,100612.19
2019-03-23T14:37:33.367Z,100611.91
2019-03-23T14:43:37.930Z,100609.27
2019-03-23T14:49:42.523Z,100607.03
2019-03-23T14:55:47.319Z,100617.58
2019-03-23T15:01:51.976Z,100612.75
2019-03-23T15:07:56.629Z,100599.00
2019-03-23T15:14:01.195Z,100594.47
2019-03-23T15:20:07.830Z,100603.34
2019-03-23T15:26:12.519Z,100606.52
2019-03-23T15:32:17.096Z,100605.43
2019-03-23T15:38:21.670Z,100613.70
2019-03-23T15:44:26.248Z,100617.69
2019-03-23T15:50:30.829Z,100615.56
2019-03-23T15:56:35.586Z,100614.98
2019-03-23T16:02:42.904Z,100620.37
2019-03-23T16:08:47.687Z,100625.86
2019-03-23T16:14:52.271Z,100622.17
2019-03-23T16:20:56.893Z,100618.10
2019-03-23T16:27:01.569Z,100612.80
2019-03-23T16:33:06.325Z,100615.23
2019-03-23T16:39:10.965Z,100627.88
2019-03-23T16:45:16.356Z,100622.08
2019-03-23T16:51:20.952Z,100618.08
2019-03-23T16:57:25.735Z,100626.28
2019-03-23T17:03:30.316Z,100632.12
2019-03-23T17:09:34.876Z,100625.64
2019-03-23T17:15:39.435Z,100629.73
2019-03-23T17:21:44.166Z,100622.66
2019-03-23T17:27:48.745Z,100627.76
2019-03-23T17:33:53.400Z,100636.33
2019-03-23T17:39:57.953Z,100636.16
2019-03-23T17:46:02.673Z,100641.22
2019-03-23T17:52:07.352Z,100639.36
2019-03-23T17:58:11.940Z,100645.39
2019-03-23T18:04:16.580Z,100652.95
2019-03-23T18:10:21.236Z,100654.63
2019-03-23T18:16:25.952Z,100657.56
2019-03-23T18:22:30.686Z,100664.97
2019-03-23T18:28:35.315Z,100656.52
2019-03-23T18:34:39.896Z,100667.77
2019-03-23T18:40:44.650Z,100665.83
2019-03-23T18:46:49.457Z,100675.55
2019-03-23T18:52:54.016Z,100679.41
2019-03-23T18:58:58.587Z,100683.56
2019-03-23T19:05:03.254Z,100686.68
2019-03-23T19:11:07.827Z,100689.05
2019-03-23T19:17:12.408Z,100694.22
2019-03-23T19:23:16.982Z,100694.27
2019-03-23T19:29:21.567Z,100695.57
2019-03-23T19:35:26.308Z,100698.78
2019-03-23T19:41:30.994Z,100697.14
2019-03-23T19:47:35.652Z,100700.84
2019-03-23T19:53:40.409Z,100701.86
2019-03-23T19:59:44.992Z,100714.27
2019-03-23T20:05:49.640Z,100713.91
2019-03-23T20:11:54.225Z,100723.55
2019-03-23T20:17:58.819Z,100721.70
2019-03-23T20:24:03.397Z,100716.33
2019-03-23T20:30:11.487Z,100724.87
2019-03-23T20:36:16.102Z,100725.06
2019-03-23T20:42:20.760Z,100725.06
2019-03-23T20:48:25.689Z,100723.89
2019-03-23T20:54:30.403Z,100720.67
2019-03-23T21:00:35.010Z,100717.12
2019-03-23T21:06:39.591Z,100722.66
2019-03-23T21:12:44.181Z,100725.48
2019-03-23T21:18:48.761Z,100728.15
2019-03-23T21:24:53.325Z,100719.77
2019-03-23T21:30:57.897Z,100710.73
2019-03-23T21:37:02.535Z,100714.39
2019-03-23T21:43:07.103Z,100708.44
2019-03-23T21:49:11.670Z,100708.20
2019-03-23T21:55:16.478Z,100704.74
2019-03-23T22:01:21.037Z,100697.52
2019-03-23T22:07:25.598Z,100689.49
2019-03-23T22:13:30.173Z,100683.45
2019-03-23T22:19:34.810Z,100678.88
2019-03-23T22:25:39.434Z,100677.80
2019-03-23T22:31:44.006Z,100677.43
2019-03-23T22:37:48.570Z,100667.63
2019-03-23T22:43:53.112Z,100659.06
2019-03-23T22:49:57.682Z,100667.28
2019-03-23T22:56:02.317Z,100665.27
2019-03-23T23:02:06.887Z,100657.34
2019-03-23T23:08:11.470Z,100654.76
2019-03-23T23:14:16.011Z,100656.22
2019-03-23T23:20:20.596Z,100654.66
2019-03-23T23:26:25.249Z,100654.11
2019-03-23T23:32:29.796Z,100657.24
2019-03-23T23:38:34.365Z,100656.14
2019-03-23T23:44:38.918Z,100654.09
2019-03-23T23:50:43.470Z,100649.64
2019-03-23T23:56:48.153Z,100652.23
